Time;durP1;ratioP1;P1;durP2;ratioP2;P2;SDS_P1;SDS_P2;PMS_P1;PMS_P2;Temp;Humidity;BMP_temperature;BMP_pressure;BME280_temperature;BME280_humidity;BME280_pressure;Samples;Min_cycle;Max_cycle;Signal;HPM_P1;HPM_P2
2021/08/11 00:00:23;;;;;;;17.77;13.20;;;15.30;88.10;;;;;;5005924;28;20045;-71
2021/08/11 00:02:49;;;;;;;17.55;13.32;;;15.20;88.10;;;;;;5020163;28;20458;-72
2021/08/11 00:05:14;;;;;;;18.60;13.65;;;15.20;88.10;;;;;;5033069;28;20564;-72
2021/08/11 00:07:40;;;;;;;17.50;12.93;;;15.20;88.10;;;;;;5036787;28;20025;-74
2021/08/11 00:10:07;;;;;;;16.58;13.10;;;15.10;88.20;;;;;;5030358;28;20024;-72
2021/08/11 00:12:32;;;;;;;16.02;12.32;;;15.10;88.20;;;;;;5024569;28;20034;-73
2021/08/11 00:14:58;;;;;;;16.83;12.10;;;15.10;88.20;;;;;;5026531;28;20086;-72
2021/08/11 00:17:24;;;;;;;17.48;13.73;;;15.10;88.20;;;;;;5023603;28;20109;-72
2021/08/11 00:19:50;;;;;;;18.50;13.75;;;15.10;88.30;;;;;;5034535;28;20499;-73
2021/08/11 00:22:16;;;;;;;17.38;13.95;;;15.10;88.40;;;;;;5042527;28;20089;-73
2021/08/11 00:24:41;;;;;;;18.13;13.60;;;15.10;88.50;;;;;;5024985;28;20042;-72
2021/08/11 00:27:07;;;;;;;17.75;12.88;;;15.10;88.40;;;;;;5032515;28;20176;-72
2021/08/11 00:29:33;;;;;;;16.08;12.48;;;15.00;88.50;;;;;;5026281;28;20029;-72
2021/08/11 00:31:59;;;;;;;18.77;13.20;;;15.00;88.60;;;;;;5032883;28;20030;-72
2021/08/11 00:34:27;;;;;;;16.63;13.40;;;14.90;88.50;;;;;;5039642;28;20033;-72
2021/08/11 00:36:53;;;;;;;15.63;12.68;;;14.90;88.50;;;;;;5028669;28;20499;-73
2021/08/11 00:39:19;;;;;;;16.75;12.15;;;14.90;88.40;;;;;;5021214;28;20036;-72
2021/08/11 00:41:45;;;;;;;19.15;13.52;;;14.90;88.50;;;;;;5025145;28;20041;-73
2021/08/11 00:44:12;;;;;;;15.60;12.10;;;14.90;88.50;;;;;;5037668;28;20037;-71
2021/08/11 00:46:42;;;;;;;18.63;13.07;;;14.80;88.50;;;;;;5029941;28;20043;-72
2021/08/11 00:49:13;;;;;;;18.48;12.15;;;14.80;88.50;;;;;;5026398;28;20114;-72
2021/08/11 00:51:39;;;;;;;17.77;13.30;;;14.80;88.50;;;;;;5034176;28;20218;-71
2021/08/11 00:54:06;;;;;;;18.23;12.35;;;14.70;88.40;;;;;;5027110;28;20468;-71
2021/08/11 00:56:34;;;;;;;16.88;12.80;;;14.70;88.50;;;;;;5033620;28;20033;-74
2021/08/11 00:59:01;;;;;;;16.45;12.00;;;14.70;88.40;;;;;;5032235;28;20077;-71
2021/08/11 01:01:30;;;;;;;19.08;12.07;;;14.60;88.40;;;;;;5036183;28;20041;-71
2021/08/11 01:03:58;;;;;;;15.85;12.57;;;14.60;88.40;;;;;;5031030;28;20030;-72
2021/08/11 01:06:25;;;;;;;17.10;12.80;;;14.60;88.40;;;;;;5018081;28;20026;-72
2021/08/11 01:08:55;;;;;;;16.50;12.02;;;14.60;88.40;;;;;;5008577;28;20041;-72
2021/08/11 01:11:22;;;;;;;17.60;13.05;;;14.50;88.40;;;;;;5013178;28;20416;-72
2021/08/11 01:13:49;;;;;;;15.82;13.10;;;14.50;88.40;;;;;;5017289;28;20033;-72
2021/08/11 01:16:14;;;;;;;16.52;12.32;;;14.50;88.50;;;;;;5013520;28;20064;-72
2021/08/11 01:18:40;;;;;;;15.88;12.80;;;14.50;88.50;;;;;;5020143;28;20033;-71
2021/08/11 01:21:22;;;;;;;19.15;12.68;;;14.40;88.40;;;;;;4998842;28;20046;-72
2021/08/11 01:24:14;;;;;;;16.48;12.02;;;14.40;88.30;;;;;;5012043;28;20025;-72
2021/08/11 01:26:52;;;;;;;15.20;11.82;;;14.30;88.40;;;;;;5002248;28;20050;-72
2021/08/11 01:29:39;;;;;;;16.13;12.60;;;14.30;88.50;;;;;;5001370;28;20052;-73
2021/08/11 01:32:15;;;;;;;15.48;11.73;;;14.20;88.50;;;;;;5006566;28;20482;-72
2021/08/11 01:34:45;;;;;;;15.90;12.00;;;14.20;88.40;;;;;;5021022;28;20027;-73
2021/08/11 01:37:17;;;;;;;16.50;12.35;;;14.20;88.50;;;;;;5008390;28;20091;-73
2021/08/11 01:39:48;;;;;;;16.05;12.10;;;14.20;88.40;;;;;;5013995;28;20028;-73
2021/08/11 01:42:28;;;;;;;16.90;12.43;;;14.10;88.40;;;;;;4995984;28;20038;-73
2021/08/11 01:45:09;;;;;;;18.38;12.77;;;14.10;88.60;;;;;;5004039;28;20565;-72
2021/08/11 01:47:48;;;;;;;17.98;12.95;;;14.10;88.60;;;;;;5003823;28;20129;-74
2021/08/11 01:50:17;;;;;;;17.23;12.30;;;14.10;88.60;;;;;;5002551;28;20038;-72
2021/08/11 01:52:45;;;;;;;16.63;12.82;;;14.10;88.50;;;;;;5002486;28;20066;-73
2021/08/11 01:55:12;;;;;;;16.30;12.20;;;14.10;88.60;;;;;;5001106;28;20042;-73
2021/08/11 01:57:52;;;;;;;18.10;12.85;;;14.00;88.50;;;;;;4994524;28;20030;-74
2021/08/11 02:00:21;;;;;;;19.63;13.50;;;14.00;88.50;;;;;;5001661;28;20038;-74
2021/08/11 02:02:48;;;;;;;18.00;13.48;;;14.00;88.70;;;;;;5025480;28;20037;-73
2021/08/11 02:05:15;;;;;;;18.70;13.65;;;13.90;88.70;;;;;;5023269;28;20339;-73
2021/08/11 02:07:41;;;;;;;16.45;13.25;;;13.90;88.80;;;;;;5029887;28;20476;-73
2021/08/11 02:10:10;;;;;;;16.08;12.65;;;13.80;88.80;;;;;;5016118;28;20489;-74
2021/08/11 02:12:36;;;;;;;18.25;14.02;;;13.90;88.80;;;;;;4988880;28;20474;-73
2021/08/11 02:15:05;;;;;;;22.02;13.70;;;13.80;88.80;;;;;;5012798;28;20038;-73
2021/08/11 02:17:30;;;;;;;20.58;14.15;;;13.80;88.90;;;;;;5001400;28;20482;-73
2021/08/11 02:19:56;;;;;;;18.73;14.00;;;13.70;88.90;;;;;;5028493;28;20147;-73
2021/08/11 02:22:22;;;;;;;19.02;13.07;;;13.70;89.00;;;;;;5026248;28;20045;-73
2021/08/11 02:24:48;;;;;;;19.45;13.40;;;13.70;89.00;;;;;;5025143;28;20026;-76
2021/08/11 02:27:23;;;;;;;18.05;13.60;;;13.70;89.00;;;;;;4991454;28;20158;-73
2021/08/11 02:29:56;;;;;;;21.20;14.45;;;13.70;89.00;;;;;;5002809;28;20591;-73
2021/08/11 02:32:32;;;;;;;17.38;14.13;;;13.60;89.10;;;;;;5007340;28;20040;-73
2021/08/11 02:35:16;;;;;;;19.92;14.30;;;13.60;89.10;;;;;;4995077;28;20029;-73
2021/08/11 02:37:52;;;;;;;20.05;14.32;;;13.60;89.20;;;;;;5026323;28;20095;-73
2021/08/11 02:40:35;;;;;;;21.70;16.05;;;13.60;89.20;;;;;;5003733;28;20363;-72
2021/08/11 02:43:19;;;;;;;22.65;15.40;;;13.60;89.40;;;;;;5015769;28;20034;-73
2021/08/11 02:45:50;;;;;;;20.48;15.00;;;13.50;89.30;;;;;;4999915;28;20034;-73
2021/08/11 02:48:17;;;;;;;20.13;14.77;;;13.50;89.40;;;;;;5011428;28;20026;-73
2021/08/11 02:50:43;;;;;;;21.10;16.08;;;13.50;89.50;;;;;;4999530;28;20039;-74
2021/08/11 02:53:12;;;;;;;21.77;16.35;;;13.50;89.50;;;;;;5001083;28;20029;-73
2021/08/11 02:55:39;;;;;;;20.05;14.90;;;13.50;89.60;;;;;;5008956;28;20038;-73
2021/08/11 02:58:06;;;;;;;23.23;16.05;;;13.50;89.70;;;;;;5008425;28;20030;-74
2021/08/11 03:00:33;;;;;;;20.58;15.32;;;13.50;89.80;;;;;;5031726;28;20088;-73
2021/08/11 03:03:00;;;;;;;23.08;16.35;;;13.50;89.70;;;;;;5021290;28;20038;-73
2021/08/11 03:05:25;;;;;;;24.63;16.77;;;13.40;89.70;;;;;;5026389;28;20060;-73
2021/08/11 03:07:51;;;;;;;20.70;15.15;;;13.40;89.70;;;;;;5033792;28;20508;-73
2021/08/11 03:10:17;;;;;;;19.60;15.60;;;13.40;89.80;;;;;;5031074;28;20029;-72
2021/08/11 03:12:45;;;;;;;22.13;16.40;;;13.40;89.90;;;;;;5026777;28;20452;-73
2021/08/11 03:15:12;;;;;;;20.17;15.65;;;13.40;89.90;;;;;;5030648;28;20401;-73
2021/08/11 03:17:39;;;;;;;21.75;15.68;;;13.40;89.90;;;;;;5032824;28;20117;-73
2021/08/11 03:20:06;;;;;;;21.20;15.85;;;13.30;90.00;;;;;;5038239;28;20044;-73
2021/08/11 03:22:32;;;;;;;23.13;16.17;;;13.30;90.00;;;;;;5037470;28;20036;-72
2021/08/11 03:24:57;;;;;;;20.17;15.48;;;13.30;90.00;;;;;;5032099;28;20033;-73
2021/08/11 03:27:23;;;;;;;19.95;15.23;;;13.30;89.90;;;;;;5026735;28;20087;-74
2021/08/11 03:29:49;;;;;;;20.30;14.57;;;13.30;89.90;;;;;;5019633;28;20026;-73
2021/08/11 03:32:15;;;;;;;21.02;15.20;;;13.30;89.80;;;;;;5030972;28;20057;-73
2021/08/11 03:34:41;;;;;;;22.38;16.13;;;13.20;89.90;;;;;;5028482;28;20030;-75
2021/08/11 03:37:07;;;;;;;24.05;15.77;;;13.20;90.00;;;;;;5028472;28;20025;-73
2021/08/11 03:39:33;;;;;;;21.98;15.25;;;13.20;90.10;;;;;;5022960;28;20427;-73
2021/08/11 03:41:59;;;;;;;20.35;16.02;;;13.20;90.10;;;;;;5023803;28;20040;-73
2021/08/11 03:44:24;;;;;;;23.77;16.45;;;13.10;90.10;;;;;;5028573;28;20026;-73
2021/08/11 03:46:50;;;;;;;24.10;17.23;;;13.20;90.10;;;;;;5034065;28;20109;-71
2021/08/11 03:49:19;;;;;;;24.20;17.50;;;13.10;90.10;;;;;;5037795;28;20469;-72
2021/08/11 03:51:44;;;;;;;22.40;15.65;;;13.10;90.20;;;;;;5018397;28;20484;-72
2021/08/11 03:54:10;;;;;;;22.10;15.88;;;13.10;90.20;;;;;;5028338;28;20030;-72
2021/08/11 03:56:36;;;;;;;25.27;17.73;;;13.10;90.20;;;;;;5027442;28;20079;-72
2021/08/11 03:59:01;;;;;;;25.40;17.63;;;13.10;90.20;;;;;;5021985;28;20034;-72
2021/08/11 04:01:27;;;;;;;24.20;16.88;;;13.10;90.30;;;;;;5025392;28;20120;-72
2021/08/11 04:03:53;;;;;;;23.58;17.40;;;13.10;90.40;;;;;;5026260;28;20037;-75
2021/08/11 04:06:18;;;;;;;22.55;17.23;;;13.10;90.40;;;;;;5031617;28;20073;-72
2021/08/11 04:08:44;;;;;;;22.13;17.40;;;13.10;90.50;;;;;;5028397;28;20022;-72
2021/08/11 04:11:10;;;;;;;27.05;18.40;;;13.10;90.40;;;;;;5025059;28;20029;-73
2021/08/11 04:13:35;;;;;;;26.20;17.75;;;13.10;90.50;;;;;;5024378;28;20491;-72
2021/08/11 04:16:01;;;;;;;25.08;17.02;;;13.10;90.50;;;;;;5026573;28;20072;-74
2021/08/11 04:18:27;;;;;;;21.77;16.42;;;13.10;90.50;;;;;;5023431;28;20029;-74
2021/08/11 04:20:52;;;;;;;25.40;17.17;;;13.00;90.60;;;;;;5039790;28;20439;-72
2021/08/11 04:23:18;;;;;;;27.42;17.42;;;13.00;90.50;;;;;;5024630;28;20105;-73
2021/08/11 04:25:44;;;;;;;28.40;18.85;;;13.00;90.50;;;;;;5004169;28;20050;-74
2021/08/11 04:28:10;;;;;;;25.80;17.52;;;13.10;90.60;;;;;;4995170;28;20030;-74
2021/08/11 04:30:36;;;;;;;24.67;17.60;;;13.00;90.40;;;;;;5000080;28;20042;-73
2021/08/11 04:33:02;;;;;;;23.10;16.35;;;13.00;90.50;;;;;;4996766;28;20041;-74
2021/08/11 04:35:28;;;;;;;21.95;17.08;;;13.00;90.40;;;;;;5002607;28;20074;-73
2021/08/11 04:37:55;;;;;;;27.90;18.73;;;13.00;90.50;;;;;;4998675;28;20049;-72
2021/08/11 04:40:20;;;;;;;21.33;16.10;;;13.00;90.50;;;;;;5006494;28;20038;-73
2021/08/11 04:42:46;;;;;;;26.38;17.40;;;13.10;90.60;;;;;;5016708;28;20023;-72
2021/08/11 04:45:12;;;;;;;22.15;16.08;;;13.10;90.60;;;;;;5004410;28;20037;-72
2021/08/11 04:47:38;;;;;;;24.60;16.20;;;13.10;90.60;;;;;;5016041;28;20029;-73
2021/08/11 04:50:04;;;;;;;22.42;16.65;;;13.10;90.60;;;;;;5000312;28;20443;-72
2021/08/11 04:52:30;;;;;;;21.42;15.65;;;13.10;90.70;;;;;;5002195;28;20348;-72
2021/08/11 04:54:55;;;;;;;25.23;17.95;;;13.10;90.60;;;;;;4999603;28;20570;-72
2021/08/11 04:57:21;;;;;;;23.40;16.17;;;13.10;90.50;;;;;;5003124;28;20442;-74
2021/08/11 04:59:46;;;;;;;22.15;16.45;;;13.10;90.60;;;;;;5007091;28;20034;-73
2021/08/11 05:02:12;;;;;;;22.08;16.27;;;13.10;90.60;;;;;;5002410;28;20141;-72
2021/08/11 05:04:39;;;;;;;19.65;14.82;;;13.10;90.60;;;;;;5031915;28;20030;-73
2021/08/11 05:07:06;;;;;;;21.88;16.83;;;13.20;90.50;;;;;;5025919;28;20523;-72
2021/08/11 05:09:33;;;;;;;21.38;16.40;;;13.20;90.40;;;;;;5026060;28;20034;-72
2021/08/11 05:11:59;;;;;;;20.90;14.73;;;13.20;90.40;;;;;;5031589;28;20041;-72
2021/08/11 05:14:24;;;;;;;23.98;16.17;;;13.30;90.50;;;;;;5026246;28;20048;-72
2021/08/11 05:16:50;;;;;;;25.15;16.13;;;13.40;90.40;;;;;;5017050;28;20117;-72
2021/08/11 05:19:15;;;;;;;25.15;15.60;;;13.50;90.40;;;;;;5026326;28;20045;-72
2021/08/11 05:21:41;;;;;;;24.48;16.98;;;13.50;90.30;;;;;;5027669;28;20045;-72
2021/08/11 05:24:07;;;;;;;19.80;15.02;;;13.60;90.20;;;;;;5025757;28;20034;-72
2021/08/11 05:26:32;;;;;;;20.38;15.82;;;13.70;90.10;;;;;;5028210;28;20041;-73
2021/08/11 05:28:58;;;;;;;21.20;15.93;;;13.80;89.90;;;;;;5025032;28;20465;-72
2021/08/11 05:31:24;;;;;;;19.40;14.90;;;13.90;89.60;;;;;;5023958;28;20058;-72
2021/08/11 05:33:50;;;;;;;22.50;16.30;;;13.90;89.60;;;;;;5003502;28;20029;-72
2021/08/11 05:36:15;;;;;;;20.33;15.32;;;14.10;89.40;;;;;;4998261;28;20030;-72
2021/08/11 05:38:41;;;;;;;20.00;14.52;;;14.10;89.30;;;;;;5003798;28;20065;-72
2021/08/11 05:41:07;;;;;;;20.05;14.63;;;14.20;89.20;;;;;;5007461;28;20102;-73
2021/08/11 05:43:33;;;;;;;23.65;14.43;;;14.30;89.00;;;;;;5006413;28;20054;-73
2021/08/11 05:46:00;;;;;;;20.05;13.93;;;14.40;88.90;;;;;;5026692;28;20536;-73
2021/08/11 05:48:26;;;;;;;23.23;14.82;;;14.40;88.70;;;;;;5035714;28;21485;-72
2021/08/11 05:50:51;;;;;;;19.90;14.18;;;14.50;88.40;;;;;;5021215;28;20038;-73
2021/08/11 05:53:17;;;;;;;20.77;15.10;;;14.50;88.40;;;;;;5011242;28;20104;-72
2021/08/11 05:55:43;;;;;;;18.17;13.48;;;14.60;88.30;;;;;;5001069;28;20039;-72
2021/08/11 05:58:10;;;;;;;23.15;14.95;;;14.60;88.40;;;;;;4991796;28;20038;-73
2021/08/11 06:00:36;;;;;;;21.73;15.10;;;14.70;88.30;;;;;;4993923;28;20113;-73
2021/08/11 06:03:03;;;;;;;23.77;14.32;;;14.80;88.20;;;;;;5029111;28;20116;-73
2021/08/11 06:05:28;;;;;;;23.13;15.52;;;14.90;88.30;;;;;;5001977;28;20395;-72
2021/08/11 06:07:54;;;;;;;23.25;14.23;;;15.00;87.70;;;;;;5015650;28;20113;-73
2021/08/11 06:10:20;;;;;;;21.23;14.65;;;15.10;87.70;;;;;;5001422;28;20031;-72
2021/08/11 06:12:47;;;;;;;17.80;13.57;;;15.10;87.50;;;;;;5000148;28;20466;-72
2021/08/11 06:15:13;;;;;;;21.23;14.23;;;15.10;87.60;;;;;;5007315;28;20120;-73
2021/08/11 06:17:46;;;;;;;22.83;15.20;;;15.20;87.40;;;;;;5005621;28;20520;-72
2021/08/11 06:20:14;;;;;;;25.20;16.15;;;15.20;87.10;;;;;;5014288;28;20386;-72
2021/08/11 06:22:40;;;;;;;24.02;16.38;;;15.40;87.60;;;;;;5010938;28;20035;-72
2021/08/11 06:25:06;;;;;;;19.70;14.15;;;15.50;86.90;;;;;;5017054;28;20135;-74
2021/08/11 06:27:32;;;;;;;23.13;16.60;;;15.60;86.70;;;;;;4996156;28;20046;-72
2021/08/11 06:29:58;;;;;;;20.75;15.40;;;15.70;86.30;;;;;;4991701;28;20367;-72
2021/08/11 06:32:24;;;;;;;21.67;15.63;;;15.90;86.20;;;;;;5001136;28;20085;-73
2021/08/11 06:34:49;;;;;;;21.23;14.63;;;15.90;85.60;;;;;;5006936;28;20030;-74
2021/08/11 06:37:16;;;;;;;22.67;16.15;;;16.00;85.80;;;;;;5002566;28;20417;-72
2021/08/11 06:39:42;;;;;;;23.23;16.38;;;16.10;85.60;;;;;;5001402;28;20116;-72
2021/08/11 06:42:08;;;;;;;20.67;15.45;;;16.10;85.40;;;;;;5000630;28;20121;-74
2021/08/11 06:44:33;;;;;;;21.88;16.08;;;16.20;85.10;;;;;;5010883;28;20065;-73
2021/08/11 06:46:59;;;;;;;21.08;15.65;;;16.30;84.90;;;;;;5004459;28;20045;-72
2021/08/11 06:49:25;;;;;;;21.10;16.27;;;16.40;84.60;;;;;;5009026;28;20034;-72
2021/08/11 06:51:50;;;;;;;23.17;15.55;;;16.50;84.50;;;;;;5004925;28;20034;-73
2021/08/11 06:54:16;;;;;;;22.02;16.10;;;16.60;84.40;;;;;;5000227;28;20491;-74
2021/08/11 06:56:42;;;;;;;25.42;17.35;;;16.80;83.80;;;;;;4997323;28;20034;-72
2021/08/11 06:59:08;;;;;;;23.48;15.30;;;16.90;83.20;;;;;;4998971;28;20530;-72
2021/08/11 07:01:34;;;;;;;21.42;16.30;;;17.00;83.10;;;;;;5005519;28;20405;-72
2021/08/11 07:03:59;;;;;;;20.00;15.63;;;17.10;82.80;;;;;;4996434;28;20039;-73
2021/08/11 07:06:25;;;;;;;25.13;17.15;;;17.30;82.80;;;;;;5000393;28;20034;-73
2021/08/11 07:08:51;;;;;;;21.95;16.00;;;17.40;82.20;;;;;;4999269;28;20030;-72
2021/08/11 07:11:17;;;;;;;19.35;15.23;;;17.50;81.40;;;;;;5001678;28;20042;-72
2021/08/11 07:13:43;;;;;;;23.10;15.98;;;17.70;81.60;;;;;;4995784;28;20071;-72
2021/08/11 07:16:08;;;;;;;24.20;16.90;;;17.90;80.50;;;;;;4997113;28;20058;-71
2021/08/11 07:18:34;;;;;;;23.83;17.10;;;18.10;80.70;;;;;;5013755;28;20029;-69
2021/08/11 07:21:00;;;;;;;21.17;15.57;;;18.30;79.90;;;;;;5034029;28;20513;-70
2021/08/11 07:23:25;;;;;;;21.13;16.50;;;18.30;78.70;;;;;;5025940;28;20173;-72
2021/08/11 07:25:51;;;;;;;20.77;15.73;;;18.30;78.90;;;;;;5024585;28;20034;-72
2021/08/11 07:28:17;;;;;;;19.52;15.98;;;18.50;77.90;;;;;;5025423;28;20042;-72
2021/08/11 07:30:44;;;;;;;21.52;16.05;;;18.50;77.50;;;;;;5028975;28;20041;-72
2021/08/11 07:33:09;;;;;;;18.55;15.52;;;18.60;77.10;;;;;;5027315;28;20766;-71
2021/08/11 07:35:36;;;;;;;23.33;16.33;;;18.80;77.00;;;;;;5025081;28;20033;-74
2021/08/11 07:38:03;;;;;;;19.08;14.45;;;18.90;77.30;;;;;;5027779;28;20454;-77
2021/08/11 07:40:29;;;;;;;21.58;15.27;;;19.20;76.50;;;;;;5023898;28;20036;-72
2021/08/11 07:42:55;;;;;;;21.02;14.05;;;19.20;75.90;;;;;;5026613;28;20072;-72
2021/08/11 07:45:22;;;;;;;19.95;15.02;;;19.50;75.80;;;;;;5026457;28;20029;-73
2021/08/11 07:47:52;;;;;;;20.80;14.70;;;19.60;75.00;;;;;;5009494;28;20063;-72
2021/08/11 07:50:18;;;;;;;20.25;15.93;;;19.80;74.50;;;;;;5001078;28;20042;-75
2021/08/11 07:52:45;;;;;;;18.02;13.98;;;20.00;73.20;;;;;;5002019;28;20113;-72
2021/08/11 07:55:11;;;;;;;20.25;13.95;;;20.10;74.30;;;;;;5001564;28;20410;-76
2021/08/11 07:57:38;;;;;;;19.75;14.23;;;20.10;73.60;;;;;;5005245;28;20022;-71
2021/08/11 08:00:05;;;;;;;15.90;13.57;;;20.10;73.50;;;;;;5000830;28;20038;-79
2021/08/11 08:02:31;;;;;;;20.38;14.13;;;20.40;73.10;;;;;;4983304;28;20053;-75
2021/08/11 08:04:56;;;;;;;21.05;15.43;;;20.40;73.30;;;;;;4975191;28;20042;-72
2021/08/11 08:07:22;;;;;;;20.95;15.20;;;20.30;72.30;;;;;;4996229;28;20132;-79
2021/08/11 08:09:48;;;;;;;21.27;13.75;;;20.40;72.90;;;;;;4997045;28;20034;-74
2021/08/11 08:12:13;;;;;;;20.85;13.13;;;20.60;72.50;;;;;;4994452;28;20080;-78
2021/08/11 08:14:39;;;;;;;19.60;13.25;;;20.80;71.50;;;;;;4995915;28;20049;-72
2021/08/11 08:17:05;;;;;;;16.25;12.73;;;20.80;71.30;;;;;;4993876;28;20404;-74
2021/08/11 08:19:30;;;;;;;15.77;12.55;;;20.80;70.80;;;;;;4993019;28;20800;-78
2021/08/11 08:21:56;;;;;;;18.25;13.63;;;20.90;71.00;;;;;;4999259;28;20058;-73
2021/08/11 08:24:22;;;;;;;17.75;13.43;;;21.10;71.80;;;;;;4997081;28;20109;-79
2021/08/11 08:26:48;;;;;;;19.15;13.23;;;21.00;70.50;;;;;;4993647;28;20048;-71
2021/08/11 08:29:13;;;;;;;20.02;13.68;;;21.10;70.10;;;;;;4997742;28;20125;-74
2021/08/11 08:31:39;;;;;;;16.25;11.80;;;21.10;70.00;;;;;;5003650;28;20037;-73
2021/08/11 08:34:05;;;;;;;16.92;12.15;;;21.20;69.60;;;;;;4998591;28;20385;-74
2021/08/11 08:36:31;;;;;;;16.85;12.23;;;21.60;69.60;;;;;;5003975;28;20069;-74
2021/08/11 08:38:57;;;;;;;16.65;12.15;;;21.60;68.30;;;;;;5003097;28;20359;-72
2021/08/11 08:41:22;;;;;;;18.92;11.68;;;21.50;68.40;;;;;;5001303;28;20033;-79
2021/08/11 08:43:48;;;;;;;16.75;10.90;;;21.50;69.10;;;;;;5000087;28;20029;-72
2021/08/11 08:46:16;;;;;;;15.77;10.32;;;21.60;68.20;;;;;;4999497;28;20315;-72
2021/08/11 08:48:43;;;;;;;13.60;9.93;;;21.80;67.70;;;;;;4997545;28;20034;-73
2021/08/11 08:51:13;;;;;;;16.85;11.05;;;21.80;66.80;;;;;;5003442;28;20029;-71
2021/08/11 08:53:44;;;;;;;16.10;10.80;;;21.90;66.90;;;;;;5011830;28;20048;-72
2021/08/11 08:56:10;;;;;;;14.98;10.88;;;21.80;66.90;;;;;;5004054;28;20021;-76
2021/08/11 08:58:38;;;;;;;14.15;10.07;;;21.80;66.20;;;;;;5000095;28;20368;-72
2021/08/11 09:01:04;;;;;;;17.20;10.48;;;22.10;66.60;;;;;;5006252;28;20249;-72
2021/08/11 09:03:30;;;;;;;14.18;11.00;;;22.10;66.20;;;;;;4999390;28;20193;-75
2021/08/11 09:05:55;;;;;;;15.95;9.45;;;22.10;65.60;;;;;;5002492;28;20030;-76
2021/08/11 09:08:21;;;;;;;13.98;9.55;;;22.20;66.40;;;;;;5001318;28;20382;-72
2021/08/11 09:10:47;;;;;;;16.42;9.95;;;22.30;64.40;;;;;;5003621;28;20164;-72
2021/08/11 09:13:19;;;;;;;15.18;10.00;;;22.40;64.80;;;;;;5000567;28;20070;-72
2021/08/11 09:15:50;;;;;;;14.25;8.32;;;22.60;65.00;;;;;;4998654;28;20049;-83
2021/08/11 09:18:24;;;;;;;16.05;8.35;;;22.60;63.80;;;;;;5006917;28;20026;-72
2021/08/11 09:20:59;;;;;;;12.80;8.38;;;22.60;65.10;;;;;;5006676;28;20547;-72
2021/08/11 09:23:42;;;;;;;12.10;7.35;;;22.60;62.30;;;;;;5002301;28;20377;-73
2021/08/11 09:26:13;;;;;;;11.93;6.35;;;22.50;63.40;;;;;;5006568;28;20034;-73
2021/08/11 09:28:41;;;;;;;13.60;6.72;;;22.60;62.60;;;;;;5011252;28;20540;-72
2021/08/11 09:31:28;;;;;;;9.68;6.40;;;22.30;61.60;;;;;;5022425;28;20073;-73
2021/08/11 09:33:56;;;;;;;13.50;6.60;;;22.50;61.80;;;;;;5025695;28;20112;-86
2021/08/11 09:36:22;;;;;;;13.70;6.43;;;22.80;63.00;;;;;;5019762;28;20042;-76
2021/08/11 09:39:03;;;;;;;11.25;5.85;;;23.10;61.50;;;;;;5006449;28;20038;-73
2021/08/11 09:41:30;;;;;;;8.77;4.80;;;23.30;60.30;;;;;;5005212;28;20448;-72
2021/08/11 09:44:13;;;;;;;11.63;5.65;;;23.50;56.80;;;;;;4999469;28;20113;-73
2021/08/11 09:46:41;;;;;;;15.13;5.75;;;23.70;57.60;;;;;;5010142;28;20472;-76
2021/08/11 09:49:21;;;;;;;11.10;5.65;;;23.60;57.10;;;;;;4998704;28;20430;-74
2021/08/11 09:51:58;;;;;;;9.02;5.00;;;23.40;58.50;;;;;;5001031;28;20077;-73
2021/08/11 09:54:25;;;;;;;11.70;5.18;;;23.30;58.50;;;;;;5004929;28;20477;-72
2021/08/11 09:56:50;;;;;;;12.70;5.45;;;23.40;58.80;;;;;;5005229;28;20462;-72
2021/08/11 09:59:16;;;;;;;7.97;4.47;;;23.40;57.50;;;;;;4991594;28;20048;-81
2021/08/11 10:01:42;;;;;;;9.82;4.63;;;23.60;56.10;;;;;;4985942;28;20046;-73
2021/08/11 10:04:09;;;;;;;10.57;5.43;;;23.80;56.50;;;;;;4996530;28;20365;-72
2021/08/11 10:06:42;;;;;;;10.63;5.35;;;24.10;54.90;;;;;;4998967;28;20462;-73
2021/08/11 10:09:16;;;;;;;9.07;4.68;;;24.10;55.30;;;;;;4995044;28;20074;-72
2021/08/11 10:11:48;;;;;;;12.18;5.25;;;24.60;55.50;;;;;;5001120;28;20038;-72
2021/08/11 10:14:15;;;;;;;11.05;4.72;;;24.60;52.50;;;;;;5002265;28;20053;-72
2021/08/11 10:16:42;;;;;;;10.70;4.80;;;24.50;54.40;;;;;;5001956;28;20030;-73
2021/08/11 10:19:09;;;;;;;11.90;5.25;;;24.70;54.00;;;;;;5013964;28;20461;-76
2021/08/11 10:21:49;;;;;;;11.43;4.97;;;24.60;54.10;;;;;;5004025;28;20089;-82
2021/08/11 10:24:15;;;;;;;11.27;4.25;;;24.50;54.10;;;;;;5011364;28;20033;-75
2021/08/11 10:26:42;;;;;;;8.40;4.97;;;24.20;55.50;;;;;;5010188;28;20640;-77
2021/08/11 10:29:09;;;;;;;11.68;5.35;;;24.30;55.10;;;;;;5004733;28;20476;-74
2021/08/11 10:31:35;;;;;;;9.43;4.78;;;24.50;54.30;;;;;;5011978;28;20095;-71
2021/08/11 10:34:02;;;;;;;10.75;5.05;;;24.60;54.60;;;;;;5011148;28;20030;-72
2021/08/11 10:36:31;;;;;;;11.80;5.88;;;24.50;54.00;;;;;;5016623;28;20053;-72
2021/08/11 10:39:00;;;;;;;11.57;4.90;;;24.10;54.40;;;;;;5008712;28;20030;-81
2021/08/11 10:41:32;;;;;;;8.70;4.75;;;24.20;55.80;;;;;;5027280;28;20099;-72
2021/08/11 10:43:59;;;;;;;9.10;4.68;;;24.50;54.50;;;;;;5026330;28;20465;-73
2021/08/11 10:46:43;;;;;;;9.65;4.55;;;24.70;53.00;;;;;;5026076;28;20030;-72
2021/08/11 10:49:17;;;;;;;9.67;4.63;;;24.80;53.30;;;;;;5018477;28;20477;-71
2021/08/11 10:51:50;;;;;;;8.85;4.03;;;24.90;52.40;;;;;;5027706;28;20304;-71
2021/08/11 10:54:16;;;;;;;10.07;4.55;;;24.70;53.70;;;;;;5024487;28;20121;-72
2021/08/11 10:56:53;;;;;;;7.18;4.25;;;24.90;53.10;;;;;;5022254;28;20494;-72
2021/08/11 10:59:21;;;;;;;8.25;4.55;;;24.90;52.90;;;;;;5014207;28;20060;-75
2021/08/11 11:01:48;;;;;;;8.38;4.10;;;24.90;53.20;;;;;;5011911;28;20611;-74
2021/08/11 11:04:37;;;;;;;9.70;4.63;;;25.00;53.70;;;;;;5004579;28;20273;-73
2021/08/11 11:07:11;;;;;;;8.80;4.28;;;25.10;51.30;;;;;;5007885;28;20029;-76
2021/08/11 11:09:38;;;;;;;10.23;4.15;;;24.90;52.60;;;;;;5022523;28;20045;-72
2021/08/11 11:12:30;;;;;;;9.65;4.57;;;25.10;52.00;;;;;;5006986;28;20045;-72
2021/08/11 11:14:57;;;;;;;8.70;4.88;;;25.30;52.30;;;;;;5003704;28;20046;-73
2021/08/11 11:17:26;;;;;;;9.23;4.05;;;25.50;51.50;;;;;;4997949;28;20026;-75
2021/08/11 11:22:57;;;;;;;7.88;4.22;;;25.40;50.90;;;;;;5023931;28;20038;-78
2021/08/11 11:25:58;;;;;;;9.20;3.90;;;25.30;52.80;;;;;;5022140;28;20037;-76
2021/08/11 11:28:48;;;;;;;10.48;4.05;;;25.30;51.20;;;;;;5032309;28;20044;-76
2021/08/11 11:31:51;;;;;;;7.80;4.40;;;25.30;52.80;;;;;;5027299;28;20037;-76
2021/08/11 11:34:20;;;;;;;9.25;4.53;;;25.50;51.10;;;;;;5030244;28;20042;-75
2021/08/11 11:37:06;;;;;;;11.73;4.40;;;25.30;50.30;;;;;;5024266;28;20076;-74
2021/08/11 11:39:52;;;;;;;9.68;4.28;;;25.60;49.20;;;;;;5000388;28;20099;-74
2021/08/11 11:42:26;;;;;;;10.43;4.10;;;25.40;49.10;;;;;;4999015;28;20050;-76
2021/08/11 11:45:07;;;;;;;8.65;4.38;;;25.50;50.30;;;;;;4999989;28;20096;-76
2021/08/11 11:47:42;;;;;;;8.70;4.35;;;25.50;52.40;;;;;;5002330;28;20476;-75
2021/08/11 11:50:25;;;;;;;8.77;4.28;;;25.70;48.70;;;;;;5004361;28;20485;-76
2021/08/11 11:52:59;;;;;;;9.13;4.05;;;25.70;48.70;;;;;;5001450;28;20089;-74
2021/08/11 11:55:28;;;;;;;8.35;3.80;;;25.60;49.60;;;;;;4998803;28;20034;-75
2021/08/11 11:57:55;;;;;;;10.50;4.22;;;25.70;49.60;;;;;;5006848;28;20188;-76
2021/08/11 12:00:21;;;;;;;9.55;4.38;;;25.80;47.10;;;;;;4995866;28;20038;-75
2021/08/11 12:02:51;;;;;;;7.43;4.03;;;25.90;48.60;;;;;;5006867;28;20121;-74
2021/08/11 12:05:17;;;;;;;8.18;4.10;;;26.00;48.50;;;;;;4999509;28;20466;-73
2021/08/11 12:07:43;;;;;;;8.15;4.38;;;25.60;49.50;;;;;;5006427;28;20040;-74
2021/08/11 12:10:09;;;;;;;7.53;3.67;;;25.20;49.40;;;;;;5009033;28;20034;-76
2021/08/11 12:12:35;;;;;;;9.30;4.45;;;25.50;49.60;;;;;;5002383;28;20038;-74
2021/08/11 12:15:21;;;;;;;9.70;4.32;;;25.70;49.20;;;;;;5006282;28;20145;-80
2021/08/11 12:17:47;;;;;;;8.90;4.25;;;25.90;48.30;;;;;;5007927;28;20041;-78
2021/08/11 12:20:28;;;;;;;8.23;4.18;;;26.00;47.40;;;;;;5007996;28;20080;-77
2021/08/11 12:22:55;;;;;;;8.45;3.83;;;26.10;47.00;;;;;;5008372;28;20602;-77
2021/08/11 12:25:31;;;;;;;7.57;3.92;;;25.80;47.80;;;;;;5001139;28;20177;-74
2021/08/11 12:28:22;;;;;;;8.25;4.10;;;25.80;46.80;;;;;;5003952;28;20060;-74
2021/08/11 12:31:16;;;;;;;8.88;3.92;;;25.90;47.10;;;;;;5012988;28;20041;-73
2021/08/11 12:33:45;;;;;;;8.73;4.50;;;25.90;45.80;;;;;;5019011;28;20033;-73
2021/08/11 12:36:18;;;;;;;8.00;4.43;;;25.70;49.40;;;;;;5014190;28;20032;-73
2021/08/11 12:39:01;;;;;;;8.23;4.50;;;25.60;47.90;;;;;;5002626;28;21095;-72
2021/08/11 12:41:28;;;;;;;10.20;4.60;;;26.00;48.70;;;;;;4999655;28;20137;-71